sensor_id;sensor_type;location;lat;lon;timestamp;temperature;humidity
41694;DHT22;27377;50.666;9.150;2022-08-01T00:00:59;19.20;99.90
41694;DHT22;27377;50.666;9.150;2022-08-01T00:03:49;19.20;99.90
41694;DHT22;27377;50.666;9.150;2022-08-01T00:06:34;19.20;99.90
41694;DHT22;27377;50.666;9.150;2022-08-01T00:09:18;19.20;99.90
41694;DHT22;27377;50.666;9.150;2022-08-01T00:12:02;19.20;99.90
41694;DHT22;27377;50.666;9.150;2022-08-01T00:14:46;19.20;99.90
41694;DHT22;27377;50.666;9.150;2022-08-01T00:17:30;19.20;99.90
41694;DHT22;27377;50.666;9.150;2022-08-01T00:20:15;19.20;99.90
41694;DHT22;27377;50.666;9.150;2022-08-01T00:23:01;19.20;99.90
41694;DHT22;27377;50.666;9.150;2022-08-01T00:25:45;19.20;99.90
41694;DHT22;27377;50.666;9.150;2022-08-01T00:28:30;19.20;99.90
41694;DHT22;27377;50.666;9.150;2022-08-01T00:31:14;19.20;99.90
41694;DHT22;27377;50.666;9.150;2022-08-01T00:33:58;19.20;99.90
41694;DHT22;27377;50.666;9.150;2022-08-01T00:36:43;19.20;99.90
41694;DHT22;27377;50.666;9.150;2022-08-01T00:39:27;19.30;99.90
41694;DHT22;27377;50.666;9.150;2022-08-01T00:42:12;19.30;99.90
41694;DHT22;27377;50.666;9.150;2022-08-01T00:44:56;19.40;99.90
41694;DHT22;27377;50.666;9.150;2022-08-01T00:47:40;19.50;99.90
41694;DHT22;27377;50.666;9.150;2022-08-01T00:50:24;19.50;99.90
41694;DHT22;27377;50.666;9.150;2022-08-01T00:53:09;19.60;99.90
41694;DHT22;27377;50.666;9.150;2022-08-01T00:55:54;19.60;99.90
41694;DHT22;27377;50.666;9.150;2022-08-01T00:58:38;19.60;99.90
41694;DHT22;27377;50.666;9.150;2022-08-01T01:01:22;19.70;99.90
41694;DHT22;27377;50.666;9.150;2022-08-01T01:04:06;19.60;99.90
41694;DHT22;27377;50.666;9.150;2022-08-01T01:07:12;19.70;99.90
41694;DHT22;27377;50.666;9.150;2022-08-01T01:10:09;19.70;99.90
41694;DHT22;27377;50.666;9.150;2022-08-01T01:13:06;19.70;99.90
41694;DHT22;27377;50.666;9.150;2022-08-01T01:15:59;19.80;99.90
41694;DHT22;27377;50.666;9.150;2022-08-01T01:18:49;19.80;99.90
41694;DHT22;27377;50.666;9.150;2022-08-01T01:21:53;19.80;99.90
41694;DHT22;27377;50.666;9.150;2022-08-01T01:31:00;19.80;99.90
41694;DHT22;27377;50.666;9.150;2022-08-01T01:33:45;19.70;99.90
41694;DHT22;27377;50.666;9.150;2022-08-01T01:36:30;19.70;99.90
41694;DHT22;27377;50.666;9.150;2022-08-01T01:39:16;19.70;99.90
41694;DHT22;27377;50.666;9.150;2022-08-01T01:42:02;19.60;99.90
41694;DHT22;27377;50.666;9.150;2022-08-01T01:44:47;19.60;99.90
41694;DHT22;27377;50.666;9.150;2022-08-01T01:47:33;19.50;99.90
41694;DHT22;27377;50.666;9.150;2022-08-01T01:50:21;19.50;99.90
41694;DHT22;27377;50.666;9.150;2022-08-01T01:53:06;19.50;99.90
41694;DHT22;27377;50.666;9.150;2022-08-01T01:55:56;19.50;99.90
41694;DHT22;27377;50.666;9.150;2022-08-01T01:58:42;19.50;99.90
41694;DHT22;27377;50.666;9.150;2022-08-01T02:01:29;19.50;99.90
41694;DHT22;27377;50.666;9.150;2022-08-01T02:04:16;19.50;99.90
41694;DHT22;27377;50.666;9.150;2022-08-01T02:07:00;19.50;99.90
41694;DHT22;27377;50.666;9.150;2022-08-01T02:09:46;19.50;99.90
41694;DHT22;27377;50.666;9.150;2022-08-01T02:12:34;19.40;99.90
41694;DHT22;27377;50.666;9.150;2022-08-01T02:15:19;19.40;99.90
41694;DHT22;27377;50.666;9.150;2022-08-01T02:18:05;19.40;99.90
41694;DHT22;27377;50.666;9.150;2022-08-01T02:20:52;19.40;99.90
41694;DHT22;27377;50.666;9.150;2022-08-01T02:23:38;19.40;99.90
41694;DHT22;27377;50.666;9.150;2022-08-01T02:26:24;19.40;99.90
41694;DHT22;27377;50.666;9.150;2022-08-01T02:29:10;19.50;99.90
41694;DHT22;27377;50.666;9.150;2022-08-01T02:31:58;19.50;99.90
41694;DHT22;27377;50.666;9.150;2022-08-01T02:34:46;19.50;99.90
41694;DHT22;27377;50.666;9.150;2022-08-01T02:37:36;19.50;99.90
41694;DHT22;27377;50.666;9.150;2022-08-01T02:40:22;19.40;99.90
41694;DHT22;27377;50.666;9.150;2022-08-01T02:43:08;19.50;99.90
41694;DHT22;27377;50.666;9.150;2022-08-01T02:45:57;19.50;99.90
41694;DHT22;27377;50.666;9.150;2022-08-01T02:48:42;19.50;99.90
41694;DHT22;27377;50.666;9.150;2022-08-01T02:51:28;19.40;99.90
41694;DHT22;27377;50.666;9.150;2022-08-01T02:54:15;19.40;99.90
41694;DHT22;27377;50.666;9.150;2022-08-01T02:57:01;19.50;99.90
41694;DHT22;27377;50.666;9.150;2022-08-01T02:59:47;19.50;99.90
41694;DHT22;27377;50.666;9.150;2022-08-01T03:02:32;19.50;99.90
41694;DHT22;27377;50.666;9.150;2022-08-01T03:05:17;19.50;99.90
41694;DHT22;27377;50.666;9.150;2022-08-01T03:08:02;19.50;99.90
41694;DHT22;27377;50.666;9.150;2022-08-01T03:10:48;19.50;99.90
41694;DHT22;27377;50.666;9.150;2022-08-01T03:13:34;19.50;99.90
41694;DHT22;27377;50.666;9.150;2022-08-01T03:16:20;19.60;99.90
41694;DHT22;27377;50.666;9.150;2022-08-01T03:19:08;19.50;99.90
41694;DHT22;27377;50.666;9.150;2022-08-01T03:21:53;19.50;99.90
41694;DHT22;27377;50.666;9.150;2022-08-01T03:24:40;19.50;99.90
41694;DHT22;27377;50.666;9.150;2022-08-01T03:27:25;19.50;99.90
41694;DHT22;27377;50.666;9.150;2022-08-01T03:30:10;19.50;99.90
41694;DHT22;27377;50.666;9.150;2022-08-01T03:32:54;19.50;99.90
41694;DHT22;27377;50.666;9.150;2022-08-01T03:35:45;19.50;99.90
41694;DHT22;27377;50.666;9.150;2022-08-01T03:38:31;19.50;99.90
41694;DHT22;27377;50.666;9.150;2022-08-01T03:41:20;19.50;99.90
41694;DHT22;27377;50.666;9.150;2022-08-01T03:44:16;19.40;99.90
41694;DHT22;27377;50.666;9.150;2022-08-01T03:47:05;19.50;99.90
41694;DHT22;27377;50.666;9.150;2022-08-01T03:49:50;19.50;99.90
41694;DHT22;27377;50.666;9.150;2022-08-01T03:52:38;19.50;99.90
41694;DHT22;27377;50.666;9.150;2022-08-01T03:55:24;19.50;99.90
41694;DHT22;27377;50.666;9.150;2022-08-01T03:58:09;19.60;99.90
41694;DHT22;27377;50.666;9.150;2022-08-01T04:00:54;19.60;99.90
41694;DHT22;27377;50.666;9.150;2022-08-01T04:03:39;19.60;99.90
41694;DHT22;27377;50.666;9.150;2022-08-01T04:06:23;19.60;99.90
41694;DHT22;27377;50.666;9.150;2022-08-01T04:09:07;19.70;99.90
41694;DHT22;27377;50.666;9.150;2022-08-01T04:11:51;19.70;99.90
41694;DHT22;27377;50.666;9.150;2022-08-01T04:14:36;19.60;99.90
41694;DHT22;27377;50.666;9.150;2022-08-01T04:17:20;19.70;99.90
41694;DHT22;27377;50.666;9.150;2022-08-01T04:20:05;19.60;99.90
41694;DHT22;27377;50.666;9.150;2022-08-01T04:22:49;19.60;99.90
41694;DHT22;27377;50.666;9.150;2022-08-01T04:25:34;19.70;99.90
41694;DHT22;27377;50.666;9.150;2022-08-01T04:28:19;19.70;99.90
41694;DHT22;27377;50.666;9.150;2022-08-01T04:31:08;19.70;99.90
41694;DHT22;27377;50.666;9.150;2022-08-01T04:33:55;19.70;99.90
41694;DHT22;27377;50.666;9.150;2022-08-01T04:36:39;19.70;99.90
41694;DHT22;27377;50.666;9.150;2022-08-01T04:39:28;19.70;99.90
41694;DHT22;27377;50.666;9.150;2022-08-01T04:42:15;19.70;99.90
41694;DHT22;27377;50.666;9.150;2022-08-01T04:45:00;19.70;99.90
41694;DHT22;27377;50.666;9.150;2022-08-01T04:47:45;19.70;99.90
41694;DHT22;27377;50.666;9.150;2022-08-01T04:50:30;19.70;99.90
41694;DHT22;27377;50.666;9.150;2022-08-01T04:53:17;19.70;99.90
41694;DHT22;27377;50.666;9.150;2022-08-01T04:56:01;19.70;99.90
41694;DHT22;27377;50.666;9.150;2022-08-01T04:58:45;19.80;99.90
41694;DHT22;27377;50.666;9.150;2022-08-01T05:01:29;19.80;99.90
41694;DHT22;27377;50.666;9.150;2022-08-01T05:04:13;19.80;99.90
41694;DHT22;27377;50.666;9.150;2022-08-01T05:06:57;19.80;99.90
41694;DHT22;27377;50.666;9.150;2022-08-01T05:09:42;19.80;99.90
41694;DHT22;27377;50.666;9.150;2022-08-01T05:12:26;19.80;99.90
41694;DHT22;27377;50.666;9.150;2022-08-01T05:15:10;19.80;99.90
41694;DHT22;27377;50.666;9.150;2022-08-01T05:17:55;19.80;99.90
41694;DHT22;27377;50.666;9.150;2022-08-01T05:20:40;19.80;99.90
41694;DHT22;27377;50.666;9.150;2022-08-01T05:23:25;19.80;99.90
41694;DHT22;27377;50.666;9.150;2022-08-01T05:26:10;19.80;99.90
41694;DHT22;27377;50.666;9.150;2022-08-01T05:28:55;19.80;99.90
41694;DHT22;27377;50.666;9.150;2022-08-01T05:31:39;19.80;99.90
41694;DHT22;27377;50.666;9.150;2022-08-01T05:34:23;19.80;99.90
41694;DHT22;27377;50.666;9.150;2022-08-01T05:37:07;19.80;99.90
41694;DHT22;27377;50.666;9.150;2022-08-01T05:39:51;19.80;99.90
41694;DHT22;27377;50.666;9.150;2022-08-01T05:42:35;19.80;99.90
41694;DHT22;27377;50.666;9.150;2022-08-01T05:45:19;19.80;99.90
41694;DHT22;27377;50.666;9.150;2022-08-01T05:48:05;19.80;99.90
41694;DHT22;27377;50.666;9.150;2022-08-01T05:50:49;19.90;99.90
41694;DHT22;27377;50.666;9.150;2022-08-01T05:53:34;19.90;99.90
41694;DHT22;27377;50.666;9.150;2022-08-01T05:56:19;19.90;99.90
41694;DHT22;27377;50.666;9.150;2022-08-01T05:59:03;19.90;99.90
41694;DHT22;27377;50.666;9.150;2022-08-01T06:01:47;19.90;99.90
41694;DHT22;27377;50.666;9.150;2022-08-01T06:04:31;19.90;99.90
41694;DHT22;27377;50.666;9.150;2022-08-01T06:07:15;19.90;99.90
41694;DHT22;27377;50.666;9.150;2022-08-01T06:09:59;20.00;99.90
41694;DHT22;27377;50.666;9.150;2022-08-01T06:12:43;20.00;99.90
41694;DHT22;27377;50.666;9.150;2022-08-01T06:15:27;20.00;99.90
41694;DHT22;27377;50.666;9.150;2022-08-01T06:18:11;20.00;99.90
41694;DHT22;27377;50.666;9.150;2022-08-01T06:20:56;20.00;99.90
41694;DHT22;27377;50.666;9.150;2022-08-01T06:23:40;20.00;99.90
41694;DHT22;27377;50.666;9.150;2022-08-01T06:26:26;20.10;99.90
41694;DHT22;27377;50.666;9.150;2022-08-01T06:29:10;20.10;99.90
41694;DHT22;27377;50.666;9.150;2022-08-01T06:31:53;20.10;99.90
41694;DHT22;27377;50.666;9.150;2022-08-01T06:34:38;20.10;99.90
41694;DHT22;27377;50.666;9.150;2022-08-01T06:37:22;20.20;99.90
41694;DHT22;27377;50.666;9.150;2022-08-01T06:40:08;20.10;99.90
41694;DHT22;27377;50.666;9.150;2022-08-01T06:42:53;20.20;99.90
41694;DHT22;27377;50.666;9.150;2022-08-01T06:45:38;20.20;99.90
41694;DHT22;27377;50.666;9.150;2022-08-01T06:48:22;20.20;99.90
41694;DHT22;27377;50.666;9.150;2022-08-01T06:51:06;20.20;99.90
41694;DHT22;27377;50.666;9.150;2022-08-01T06:53:53;20.20;99.90
41694;DHT22;27377;50.666;9.150;2022-08-01T06:56:38;20.20;99.90
41694;DHT22;27377;50.666;9.150;2022-08-01T06:59:22;20.20;99.90
41694;DHT22;27377;50.666;9.150;2022-08-01T07:02:06;20.30;99.90
41694;DHT22;27377;50.666;9.150;2022-08-01T07:04:51;20.30;99.90
41694;DHT22;27377;50.666;9.150;2022-08-01T07:07:36;20.30;99.90
41694;DHT22;27377;50.666;9.150;2022-08-01T07:10:20;20.30;99.90
41694;DHT22;27377;50.666;9.150;2022-08-01T07:13:04;20.40;99.90
41694;DHT22;27377;50.666;9.150;2022-08-01T07:15:48;20.30;99.90
41694;DHT22;27377;50.666;9.150;2022-08-01T07:18:32;20.30;99.90
41694;DHT22;27377;50.666;9.150;2022-08-01T07:21:16;20.30;99.90
41694;DHT22;27377;50.666;9.150;2022-08-01T07:24:00;20.40;99.90
41694;DHT22;27377;50.666;9.150;2022-08-01T07:26:47;20.40;99.90
41694;DHT22;27377;50.666;9.150;2022-08-01T07:29:31;20.40;99.90
41694;DHT22;27377;50.666;9.150;2022-08-01T07:32:15;20.40;99.90
41694;DHT22;27377;50.666;9.150;2022-08-01T07:34:59;20.40;99.90
41694;DHT22;27377;50.666;9.150;2022-08-01T07:37:43;20.40;99.90
41694;DHT22;27377;50.666;9.150;2022-08-01T07:40:27;20.40;99.90
41694;DHT22;27377;50.666;9.150;2022-08-01T07:43:11;20.40;99.90
41694;DHT22;27377;50.666;9.150;2022-08-01T07:45:55;20.40;99.90
41694;DHT22;27377;50.666;9.150;2022-08-01T07:48:39;20.50;99.90
41694;DHT22;27377;50.666;9.150;2022-08-01T07:51:23;20.50;99.90
41694;DHT22;27377;50.666;9.150;2022-08-01T07:54:07;20.50;99.90
41694;DHT22;27377;50.666;9.150;2022-08-01T07:56:51;20.50;99.90
41694;DHT22;27377;50.666;9.150;2022-08-01T07:59:35;20.50;99.90
41694;DHT22;27377;50.666;9.150;2022-08-01T08:02:20;20.50;99.90
41694;DHT22;27377;50.666;9.150;2022-08-01T08:05:04;20.60;99.90
41694;DHT22;27377;50.666;9.150;2022-08-01T08:07:48;20.60;99.90
41694;DHT22;27377;50.666;9.150;2022-08-01T08:10:32;20.60;99.90
41694;DHT22;27377;50.666;9.150;2022-08-01T08:13:17;20.60;99.90
41694;DHT22;27377;50.666;9.150;2022-08-01T08:16:01;20.60;99.90
41694;DHT22;27377;50.666;9.150;2022-08-01T08:18:45;20.60;99.90
41694;DHT22;27377;50.666;9.150;2022-08-01T08:21:29;20.70;99.90
41694;DHT22;27377;50.666;9.150;2022-08-01T08:24:14;20.70;99.90
41694;DHT22;27377;50.666;9.150;2022-08-01T08:27:04;20.70;99.90
41694;DHT22;27377;50.666;9.150;2022-08-01T08:29:49;20.70;99.90
41694;DHT22;27377;50.666;9.150;2022-08-01T08:32:33;20.70;99.90
41694;DHT22;27377;50.666;9.150;2022-08-01T08:35:18;20.70;99.90
41694;DHT22;27377;50.666;9.150;2022-08-01T08:38:02;20.70;99.90
41694;DHT22;27377;50.666;9.150;2022-08-01T08:40:46;20.70;99.90
41694;DHT22;27377;50.666;9.150;2022-08-01T08:43:30;20.70;99.90
41694;DHT22;27377;50.666;9.150;2022-08-01T08:46:16;20.80;99.90
41694;DHT22;27377;50.666;9.150;2022-08-01T08:49:02;20.80;99.90
41694;DHT22;27377;50.666;9.150;2022-08-01T08:51:50;20.80;99.90
41694;DHT22;27377;50.666;9.150;2022-08-01T08:54:35;20.80;99.90
41694;DHT22;27377;50.666;9.150;2022-08-01T08:57:21;20.80;99.90
41694;DHT22;27377;50.666;9.150;2022-08-01T09:00:05;20.80;99.90
41694;DHT22;27377;50.666;9.150;2022-08-01T09:02:50;20.90;99.90
41694;DHT22;27377;50.666;9.150;2022-08-01T09:05:36;21.00;99.90
41694;DHT22;27377;50.666;9.150;2022-08-01T09:08:20;21.00;99.90
41694;DHT22;27377;50.666;9.150;2022-08-01T09:11:04;21.00;99.90
41694;DHT22;27377;50.666;9.150;2022-08-01T09:14:03;21.00;99.90
41694;DHT22;27377;50.666;9.150;2022-08-01T09:19:48;21.10;99.90
41694;DHT22;27377;50.666;9.150;2022-08-01T09:22:33;21.10;99.90
41694;DHT22;27377;50.666;9.150;2022-08-01T09:25:17;21.10;99.90
41694;DHT22;27377;50.666;9.150;2022-08-01T09:28:03;21.20;99.90
41694;DHT22;27377;50.666;9.150;2022-08-01T09:30:49;21.20;99.90
41694;DHT22;27377;50.666;9.150;2022-08-01T09:33:48;21.20;99.90
41694;DHT22;27377;50.666;9.150;2022-08-01T09:36:50;21.20;99.90
41694;DHT22;27377;50.666;9.150;2022-08-01T09:39:39;21.20;99.90
41694;DHT22;27377;50.666;9.150;2022-08-01T09:42:27;21.20;99.90
41694;DHT22;27377;50.666;9.150;2022-08-01T09:45:31;21.30;99.90
41694;DHT22;27377;50.666;9.150;2022-08-01T09:48:15;21.30;99.90
41694;DHT22;27377;50.666;9.150;2022-08-01T09:51:00;21.30;99.90
41694;DHT22;27377;50.666;9.150;2022-08-01T09:53:47;21.40;99.90
41694;DHT22;27377;50.666;9.150;2022-08-01T09:56:42;21.30;99.90
41694;DHT22;27377;50.666;9.150;2022-08-01T09:59:35;21.40;99.90
41694;DHT22;27377;50.666;9.150;2022-08-01T10:02:35;21.40;99.90
41694;DHT22;27377;50.666;9.150;2022-08-01T10:05:33;21.50;99.90
41694;DHT22;27377;50.666;9.150;2022-08-01T10:08:17;21.70;99.90
41694;DHT22;27377;50.666;9.150;2022-08-01T10:11:12;21.70;99.90
41694;DHT22;27377;50.666;9.150;2022-08-01T10:13:57;21.70;99.90
41694;DHT22;27377;50.666;9.150;2022-08-01T10:16:43;21.70;99.90
41694;DHT22;27377;50.666;9.150;2022-08-01T10:19:29;21.70;99.90
41694;DHT22;27377;50.666;9.150;2022-08-01T10:22:14;21.70;99.90
41694;DHT22;27377;50.666;9.150;2022-08-01T10:25:03;21.70;99.90
41694;DHT22;27377;50.666;9.150;2022-08-01T10:27:52;21.70;99.90
41694;DHT22;27377;50.666;9.150;2022-08-01T10:30:41;21.70;99.90
41694;DHT22;27377;50.666;9.150;2022-08-01T10:33:25;21.70;99.90
41694;DHT22;27377;50.666;9.150;2022-08-01T10:36:10;21.70;99.00
41694;DHT22;27377;50.666;9.150;2022-08-01T10:38:55;21.70;99.40
41694;DHT22;27377;50.666;9.150;2022-08-01T10:41:40;21.80;98.80
41694;DHT22;27377;50.666;9.150;2022-08-01T10:44:25;21.80;98.80
41694;DHT22;27377;50.666;9.150;2022-08-01T10:47:12;21.80;98.50
41694;DHT22;27377;50.666;9.150;2022-08-01T10:50:18;21.80;97.60
41694;DHT22;27377;50.666;9.150;2022-08-01T10:58:47;21.90;98.50
41694;DHT22;27377;50.666;9.150;2022-08-01T11:01:32;22.00;97.80
41694;DHT22;27377;50.666;9.150;2022-08-01T11:04:17;22.10;97.70
41694;DHT22;27377;50.666;9.150;2022-08-01T11:07:04;22.20;98.10
41694;DHT22;27377;50.666;9.150;2022-08-01T11:10:02;22.30;97.80
41694;DHT22;27377;50.666;9.150;2022-08-01T11:12:46;22.30;97.70
41694;DHT22;27377;50.666;9.150;2022-08-01T11:15:31;22.30;97.70
41694;DHT22;27377;50.666;9.150;2022-08-01T11:21:11;22.20;97.80
41694;DHT22;27377;50.666;9.150;2022-08-01T11:23:55;22.20;97.60
41694;DHT22;27377;50.666;9.150;2022-08-01T11:26:39;22.20;97.50
41694;DHT22;27377;50.666;9.150;2022-08-01T11:29:43;22.20;97.60
41694;DHT22;27377;50.666;9.150;2022-08-01T11:32:27;22.10;97.50
41694;DHT22;27377;50.666;9.150;2022-08-01T11:35:12;22.20;97.60
41694;DHT22;27377;50.666;9.150;2022-08-01T11:37:56;22.20;97.70
41694;DHT22;27377;50.666;9.150;2022-08-01T11:40:40;22.20;97.70
41694;DHT22;27377;50.666;9.150;2022-08-01T11:43:24;22.30;97.60
41694;DHT22;27377;50.666;9.150;2022-08-01T11:46:09;22.30;97.60
41694;DHT22;27377;50.666;9.150;2022-08-01T11:49:22;22.30;97.60
41694;DHT22;27377;50.666;9.150;2022-08-01T11:57:37;22.20;97.50
41694;DHT22;27377;50.666;9.150;2022-08-01T12:00:21;22.30;97.40
41694;DHT22;27377;50.666;9.150;2022-08-01T12:03:08;22.20;97.20
41694;DHT22;27377;50.666;9.150;2022-08-01T12:05:53;22.30;97.40
41694;DHT22;27377;50.666;9.150;2022-08-01T12:08:38;22.30;97.00
41694;DHT22;27377;50.666;9.150;2022-08-01T12:11:22;22.30;96.60
41694;DHT22;27377;50.666;9.150;2022-08-01T12:14:06;22.30;96.90
41694;DHT22;27377;50.666;9.150;2022-08-01T12:16:52;22.30;95.70
41694;DHT22;27377;50.666;9.150;2022-08-01T12:19:37;22.40;96.20
41694;DHT22;27377;50.666;9.150;2022-08-01T12:22:23;22.50;96.30
41694;DHT22;27377;50.666;9.150;2022-08-01T12:25:13;22.60;95.70
41694;DHT22;27377;50.666;9.150;2022-08-01T12:28:03;22.60;95.90
41694;DHT22;27377;50.666;9.150;2022-08-01T12:30:48;22.70;95.90
41694;DHT22;27377;50.666;9.150;2022-08-01T12:33:33;22.70;95.00
41694;DHT22;27377;50.666;9.150;2022-08-01T12:36:28;22.70;95.30
41694;DHT22;27377;50.666;9.150;2022-08-01T12:39:12;22.90;95.40
41694;DHT22;27377;50.666;9.150;2022-08-01T12:41:56;22.90;95.20
41694;DHT22;27377;50.666;9.150;2022-08-01T12:44:42;22.90;95.20
41694;DHT22;27377;50.666;9.150;2022-08-01T12:47:27;22.90;95.10
41694;DHT22;27377;50.666;9.150;2022-08-01T12:50:13;22.90;95.00
41694;DHT22;27377;50.666;9.150;2022-08-01T12:52:58;22.90;94.20
41694;DHT22;27377;50.666;9.150;2022-08-01T12:55:47;22.90;94.50
41694;DHT22;27377;50.666;9.150;2022-08-01T12:58:33;22.90;94.50
41694;DHT22;27377;50.666;9.150;2022-08-01T13:01:25;22.90;94.50
41694;DHT22;27377;50.666;9.150;2022-08-01T13:04:10;22.90;94.50
41694;DHT22;27377;50.666;9.150;2022-08-01T13:06:54;23.00;93.30
41694;DHT22;27377;50.666;9.150;2022-08-01T13:09:49;23.00;93.50
41694;DHT22;27377;50.666;9.150;2022-08-01T13:12:34;23.00;94.00
41694;DHT22;27377;50.666;9.150;2022-08-01T13:15:27;23.00;94.00
41694;DHT22;27377;50.666;9.150;2022-08-01T13:18:29;23.00;93.10
41694;DHT22;27377;50.666;9.150;2022-08-01T13:21:24;23.10;93.30
41694;DHT22;27377;50.666;9.150;2022-08-01T13:24:11;23.00;93.40
41694;DHT22;27377;50.666;9.150;2022-08-01T13:27:00;23.00;92.90
41694;DHT22;27377;50.666;9.150;2022-08-01T13:29:46;23.00;92.90
41694;DHT22;27377;50.666;9.150;2022-08-01T13:32:33;22.90;93.10
41694;DHT22;27377;50.666;9.150;2022-08-01T13:35:20;22.90;93.30
41694;DHT22;27377;50.666;9.150;2022-08-01T13:38:04;22.90;93.40
41694;DHT22;27377;50.666;9.150;2022-08-01T13:40:48;23.00;93.40
41694;DHT22;27377;50.666;9.150;2022-08-01T13:43:32;23.10;93.00
41694;DHT22;27377;50.666;9.150;2022-08-01T13:46:17;23.10;93.30
41694;DHT22;27377;50.666;9.150;2022-08-01T13:49:02;23.20;91.50
41694;DHT22;27377;50.666;9.150;2022-08-01T13:51:46;23.20;92.10
41694;DHT22;27377;50.666;9.150;2022-08-01T13:54:30;23.20;92.50
41694;DHT22;27377;50.666;9.150;2022-08-01T13:57:15;23.20;92.80
41694;DHT22;27377;50.666;9.150;2022-08-01T14:00:00;23.20;92.50
41694;DHT22;27377;50.666;9.150;2022-08-01T14:02:44;23.20;92.80
41694;DHT22;27377;50.666;9.150;2022-08-01T14:05:29;23.20;92.40
41694;DHT22;27377;50.666;9.150;2022-08-01T14:08:14;23.20;92.60
41694;DHT22;27377;50.666;9.150;2022-08-01T14:10:58;23.20;91.90
41694;DHT22;27377;50.666;9.150;2022-08-01T14:13:43;23.20;91.90
41694;DHT22;27377;50.666;9.150;2022-08-01T14:16:27;23.20;92.30
41694;DHT22;27377;50.666;9.150;2022-08-01T14:19:11;23.20;91.40
41694;DHT22;27377;50.666;9.150;2022-08-01T14:21:56;23.30;92.00
41694;DHT22;27377;50.666;9.150;2022-08-01T14:24:40;23.30;91.50
41694;DHT22;27377;50.666;9.150;2022-08-01T14:27:25;23.30;90.70
41694;DHT22;27377;50.666;9.150;2022-08-01T14:30:11;23.30;91.30
41694;DHT22;27377;50.666;9.150;2022-08-01T14:32:55;23.30;91.50
41694;DHT22;27377;50.666;9.150;2022-08-01T14:35:40;23.30;90.90
41694;DHT22;27377;50.666;9.150;2022-08-01T14:38:24;23.30;90.50
41694;DHT22;27377;50.666;9.150;2022-08-01T14:41:09;23.30;90.70
41694;DHT22;27377;50.666;9.150;2022-08-01T14:43:53;23.30;90.90
41694;DHT22;27377;50.666;9.150;2022-08-01T14:46:37;23.40;90.60
41694;DHT22;27377;50.666;9.150;2022-08-01T14:49:21;23.40;90.60
41694;DHT22;27377;50.666;9.150;2022-08-01T14:52:05;23.40;88.80
41694;DHT22;27377;50.666;9.150;2022-08-01T14:54:49;23.50;90.00
41694;DHT22;27377;50.666;9.150;2022-08-01T14:57:34;23.50;90.40
41694;DHT22;27377;50.666;9.150;2022-08-01T15:00:19;23.50;90.30
41694;DHT22;27377;50.666;9.150;2022-08-01T15:03:03;23.40;90.40
41694;DHT22;27377;50.666;9.150;2022-08-01T15:05:47;23.40;90.60
41694;DHT22;27377;50.666;9.150;2022-08-01T15:08:31;23.40;90.90
41694;DHT22;27377;50.666;9.150;2022-08-01T15:11:15;23.40;91.30
41694;DHT22;27377;50.666;9.150;2022-08-01T15:14:00;23.40;91.20
41694;DHT22;27377;50.666;9.150;2022-08-01T15:17:04;23.40;90.60
41694;DHT22;27377;50.666;9.150;2022-08-01T15:19:49;23.40;90.70
41694;DHT22;27377;50.666;9.150;2022-08-01T15:22:34;23.50;89.00
41694;DHT22;27377;50.666;9.150;2022-08-01T15:25:18;23.50;90.00
41694;DHT22;27377;50.666;9.150;2022-08-01T15:28:02;23.50;90.20
41694;DHT22;27377;50.666;9.150;2022-08-01T15:30:47;23.50;90.60
41694;DHT22;27377;50.666;9.150;2022-08-01T15:33:31;23.50;90.90
41694;DHT22;27377;50.666;9.150;2022-08-01T15:36:15;23.50;90.90
41694;DHT22;27377;50.666;9.150;2022-08-01T15:38:59;23.40;90.70
41694;DHT22;27377;50.666;9.150;2022-08-01T15:41:43;23.40;91.00
41694;DHT22;27377;50.666;9.150;2022-08-01T15:44:27;23.40;91.10
41694;DHT22;27377;50.666;9.150;2022-08-01T15:47:11;23.40;91.00
41694;DHT22;27377;50.666;9.150;2022-08-01T15:49:55;23.40;91.20
41694;DHT22;27377;50.666;9.150;2022-08-01T15:52:43;23.40;91.40
41694;DHT22;27377;50.666;9.150;2022-08-01T15:55:27;23.40;91.30
41694;DHT22;27377;50.666;9.150;2022-08-01T15:58:11;23.50;91.40
41694;DHT22;27377;50.666;9.150;2022-08-01T16:00:55;23.50;91.50
41694;DHT22;27377;50.666;9.150;2022-08-01T16:03:39;23.50;91.00
41694;DHT22;27377;50.666;9.150;2022-08-01T16:06:24;23.50;90.70
41694;DHT22;27377;50.666;9.150;2022-08-01T16:09:08;23.50;90.80
41694;DHT22;27377;50.666;9.150;2022-08-01T16:11:52;23.50;91.20
41694;DHT22;27377;50.666;9.150;2022-08-01T16:14:36;23.40;91.60
41694;DHT22;27377;50.666;9.150;2022-08-01T16:17:20;23.40;92.20
41694;DHT22;27377;50.666;9.150;2022-08-01T16:20:05;23.30;93.50
41694;DHT22;27377;50.666;9.150;2022-08-01T16:22:51;23.30;94.20
41694;DHT22;27377;50.666;9.150;2022-08-01T16:25:35;23.10;94.30
41694;DHT22;27377;50.666;9.150;2022-08-01T16:28:20;23.10;94.50
41694;DHT22;27377;50.666;9.150;2022-08-01T16:31:04;23.10;94.50
41694;DHT22;27377;50.666;9.150;2022-08-01T16:33:48;23.10;95.20
41694;DHT22;27377;50.666;9.150;2022-08-01T16:36:33;23.10;95.40
41694;DHT22;27377;50.666;9.150;2022-08-01T16:39:18;23.10;95.80
41694;DHT22;27377;50.666;9.150;2022-08-01T16:42:02;23.00;96.00
41694;DHT22;27377;50.666;9.150;2022-08-01T16:44:46;23.00;96.00
41694;DHT22;27377;50.666;9.150;2022-08-01T16:47:30;23.00;95.70
41694;DHT22;27377;50.666;9.150;2022-08-01T16:50:14;22.90;96.20
41694;DHT22;27377;50.666;9.150;2022-08-01T16:52:58;22.90;96.00
41694;DHT22;27377;50.666;9.150;2022-08-01T16:55:43;22.90;96.00
41694;DHT22;27377;50.666;9.150;2022-08-01T16:58:28;22.90;96.30
41694;DHT22;27377;50.666;9.150;2022-08-01T17:01:13;22.90;96.10
41694;DHT22;27377;50.666;9.150;2022-08-01T17:03:57;22.90;96.30
41694;DHT22;27377;50.666;9.150;2022-08-01T17:06:41;22.90;96.40
41694;DHT22;27377;50.666;9.150;2022-08-01T17:09:25;22.90;96.40
41694;DHT22;27377;50.666;9.150;2022-08-01T17:12:09;22.80;96.20
41694;DHT22;27377;50.666;9.150;2022-08-01T17:14:54;22.80;96.30
41694;DHT22;27377;50.666;9.150;2022-08-01T17:17:39;22.80;96.70
41694;DHT22;27377;50.666;9.150;2022-08-01T17:20:23;22.70;96.90
41694;DHT22;27377;50.666;9.150;2022-08-01T17:23:07;22.70;97.00
41694;DHT22;27377;50.666;9.150;2022-08-01T17:25:52;22.60;96.80
41694;DHT22;27377;50.666;9.150;2022-08-01T17:28:35;22.70;97.20
41694;DHT22;27377;50.666;9.150;2022-08-01T17:31:20;22.60;96.80
41694;DHT22;27377;50.666;9.150;2022-08-01T17:34:04;22.60;96.90
41694;DHT22;27377;50.666;9.150;2022-08-01T17:36:48;22.60;97.00
41694;DHT22;27377;50.666;9.150;2022-08-01T17:39:32;22.60;97.20
41694;DHT22;27377;50.666;9.150;2022-08-01T17:42:16;22.60;97.00
41694;DHT22;27377;50.666;9.150;2022-08-01T17:45:00;22.50;96.90
41694;DHT22;27377;50.666;9.150;2022-08-01T17:47:44;22.50;97.10
41694;DHT22;27377;50.666;9.150;2022-08-01T17:50:28;22.40;97.10